Time;durP1;ratioP1;P1;durP2;ratioP2;P2;SDS_P1;SDS_P2;PMS_P1;PMS_P2;Temp;Humidity;BMP_temperature;BMP_pressure;BME280_temperature;BME280_humidity;BME280_pressure;Samples;Min_cycle;Max_cycle;Signal;HPM_P1;HPM_P2
2022/04/23 00:01:42;;;;;;;;;;;9.10;99.90;;;;;;5033822;28;19965;-87
2022/04/23 00:04:08;;;;;;;;;;;9.00;99.90;;;;;;5034286;28;19917;-87
2022/04/23 00:06:34;;;;;;;;;;;9.00;99.90;;;;;;5052523;28;20330;-87
2022/04/23 00:09:00;;;;;;;;;;;9.00;99.90;;;;;;5038244;28;20011;-86
2022/04/23 00:11:26;;;;;;;;;;;9.00;99.90;;;;;;5042929;28;19921;-87
2022/04/23 00:13:51;;;;;;;;;;;8.90;99.90;;;;;;5054813;28;19921;-87
2022/04/23 00:16:17;;;;;;;;;;;8.90;99.90;;;;;;5036893;28;19921;-88
2022/04/23 00:18:42;;;;;;;;;;;8.90;99.90;;;;;;5044068;28;19928;-86
2022/04/23 00:21:08;;;;;;;;;;;8.90;99.90;;;;;;5034668;28;20428;-86
2022/04/23 00:23:34;;;;;;;;;;;8.90;99.90;;;;;;5044220;28;19959;-87
2022/04/23 00:26:00;;;;;;;;;;;8.80;99.90;;;;;;5038449;28;20373;-86
2022/04/23 00:28:26;;;;;;;;;;;8.90;99.90;;;;;;5030448;28;20312;-86
2022/04/23 00:30:52;;;;;;;;;;;8.90;99.90;;;;;;5032340;28;19995;-87
2022/04/23 00:33:21;;;;;;;;;;;8.90;99.90;;;;;;5047781;28;19917;-87
2022/04/23 00:35:48;;;;;;;;;;;8.90;99.90;;;;;;5030623;28;19946;-86
2022/04/23 00:38:16;;;;;;;;;;;8.90;99.90;;;;;;5047832;28;19927;-87
2022/04/23 00:40:43;;;;;;;;;;;8.90;99.90;;;;;;5031240;28;19967;-86
2022/04/23 00:43:12;;;;;;;;;;;8.90;99.90;;;;;;5032170;28;19913;-86
2022/04/23 00:45:39;;;;;;;;;;;8.80;99.90;;;;;;5030480;28;19913;-86
2022/04/23 00:48:05;;;;;;;;;;;8.80;99.90;;;;;;5033764;28;19916;-86
2022/04/23 00:50:30;;;;;;;;;;;8.80;99.90;;;;;;5047948;28;19919;-86
2022/04/23 00:53:03;;;;;;;;;;;8.70;99.90;;;;;;5030708;28;19921;-86
2022/04/23 00:55:31;;;;;;;;;;;8.70;99.90;;;;;;5063461;28;19921;-86
2022/04/23 00:57:58;;;;;;;;;;;8.70;99.90;;;;;;5047084;28;20471;-86
2022/04/23 01:00:25;;;;;;;;;;;8.70;99.90;;;;;;5031430;28;20460;-85
2022/04/23 01:02:53;;;;;;;;;;;8.70;99.90;;;;;;5027887;28;19917;-86
2022/04/23 01:05:20;;;;;;;;;;;8.70;99.90;;;;;;5033423;28;20367;-86
2022/04/23 01:07:45;;;;;;;;;;;8.70;99.90;;;;;;5031224;28;19963;-86
2022/04/23 01:10:11;;;;;;;;;;;8.80;99.90;;;;;;5014608;28;20015;-86
2022/04/23 01:12:38;;;;;;;;;;;8.80;99.90;;;;;;5031075;28;19913;-87
2022/04/23 01:15:09;;;;;;;;;;;8.80;99.90;;;;;;5031017;28;19928;-85
2022/04/23 01:17:36;;;;;;;;;;;8.80;99.90;;;;;;5031314;28;20000;-86
2022/04/23 01:20:03;;;;;;;;;;;8.70;99.90;;;;;;5014113;28;19957;-86
2022/04/23 01:22:29;;;;;;;;;;;8.80;99.90;;;;;;5031247;28;20388;-85
2022/04/23 01:24:55;;;;;;;;;;;8.70;99.90;;;;;;5031555;28;20011;-86
2022/04/23 01:27:25;;;;;;;;;;;8.80;99.90;;;;;;5031272;28;19913;-85
2022/04/23 01:29:51;;;;;;;;;;;8.80;99.90;;;;;;5047318;28;19996;-86
2022/04/23 01:32:16;;;;;;;;;;;8.70;99.90;;;;;;5030933;28;20345;-86
2022/04/23 01:34:42;;;;;;;;;;;8.70;99.90;;;;;;5064601;28;19925;-86
2022/04/23 01:37:08;;;;;;;;;;;8.70;99.90;;;;;;5031690;28;20008;-86
2022/04/23 01:39:34;;;;;;;;;;;8.70;99.90;;;;;;5030433;28;19917;-86
2022/04/23 01:41:59;;;;;;;;;;;8.60;99.90;;;;;;5031690;28;19920;-85
2022/04/23 01:44:25;;;;;;;;;;;8.60;99.90;;;;;;5015622;28;19917;-86
2022/04/23 01:46:50;;;;;;;;;;;8.50;99.90;;;;;;5028123;28;19923;-86
2022/04/23 01:49:16;;;;;;;;;;;8.50;99.90;;;;;;5043139;28;19961;-86
2022/04/23 01:51:41;;;;;;;;;;;8.40;99.90;;;;;;5031570;28;19967;-86
2022/04/23 01:54:07;;;;;;;;;;;8.40;99.90;;;;;;5031912;28;19975;-86
2022/04/23 01:56:32;;;;;;;;;;;8.30;99.90;;;;;;5048610;28;19955;-86
2022/04/23 01:58:58;;;;;;;;;;;8.30;99.90;;;;;;5031211;28;20312;-85
2022/04/23 02:01:23;;;;;;;;;;;8.20;99.90;;;;;;5065151;28;19917;-85
2022/04/23 02:03:51;;;;;;;;;;;8.20;99.90;;;;;;5065276;28;19918;-86
2022/04/23 02:06:17;;;;;;;;;;;8.20;99.90;;;;;;5048582;28;20012;-86
2022/04/23 02:08:42;;;;;;;;;;;8.10;99.90;;;;;;5031514;28;20338;-87
2022/04/23 02:11:08;;;;;;;;;;;8.00;99.90;;;;;;5039384;28;19917;-86
2022/04/23 02:13:34;;;;;;;;;;;8.00;99.90;;;;;;5014532;28;19924;-86
2022/04/23 02:15:59;;;;;;;;;;;8.00;99.90;;;;;;5045889;28;20407;-86
2022/04/23 02:18:26;;;;;;;;;;;7.90;99.90;;;;;;5031173;28;19920;-85
2022/04/23 02:20:52;;;;;;;;;;;7.90;99.90;;;;;;5030080;28;19916;-86
2022/04/23 02:23:18;;;;;;;;;;;7.90;99.90;;;;;;5029732;28;19917;-86
2022/04/23 02:25:43;;;;;;;;;;;7.80;99.90;;;;;;5029920;28;19967;-86
2022/04/23 02:28:09;;;;;;;;;;;7.80;99.90;;;;;;5045600;28;20003;-86
2022/04/23 02:30:34;;;;;;;;;;;7.80;99.90;;;;;;5062500;28;19921;-85
2022/04/23 02:33:00;;;;;;;;;;;7.70;99.90;;;;;;5029421;28;19913;-86
2022/04/23 02:35:26;;;;;;;;;;;7.70;99.90;;;;;;5013524;28;19943;-85
2022/04/23 02:37:53;;;;;;;;;;;7.70;99.90;;;;;;5029651;28;19917;-86
2022/04/23 02:40:18;;;;;;;;;;;7.60;99.90;;;;;;5030713;28;19913;-86
2022/04/23 02:42:44;;;;;;;;;;;7.60;99.90;;;;;;5031320;28;19920;-86
2022/04/23 02:45:11;;;;;;;;;;;7.60;99.90;;;;;;5030946;28;19913;-86
2022/04/23 02:47:44;;;;;;;;;;;7.60;99.90;;;;;;5029861;28;19917;-85
2022/04/23 02:50:10;;;;;;;;;;;7.60;99.90;;;;;;5045349;28;19975;-86
2022/04/23 02:52:36;;;;;;;;;;;7.50;99.90;;;;;;5062547;28;20408;-86
2022/04/23 02:55:01;;;;;;;;;;;7.50;99.90;;;;;;5046374;28;19956;-85
2022/04/23 02:57:27;;;;;;;;;;;7.50;99.90;;;;;;5050343;28;20397;-86
2022/04/23 02:59:52;;;;;;;;;;;7.50;99.90;;;;;;5028577;28;20403;-86
2022/04/23 03:02:18;;;;;;;;;;;7.50;99.90;;;;;;5046525;28;19917;-86
2022/04/23 03:04:43;;;;;;;;;;;7.50;99.90;;;;;;5032902;28;20012;-85
2022/04/23 03:07:10;;;;;;;;;;;7.50;99.90;;;;;;5016088;28;19921;-86
2022/04/23 03:09:36;;;;;;;;;;;7.40;99.90;;;;;;5011307;28;19921;-86
2022/04/23 03:12:02;;;;;;;;;;;7.40;99.90;;;;;;5045322;28;19917;-86
2022/04/23 03:14:27;;;;;;;;;;;7.40;99.90;;;;;;5029903;28;19971;-86
2022/04/23 03:16:52;;;;;;;;;;;7.30;99.90;;;;;;5032987;28;20018;-85
2022/04/23 03:19:18;;;;;;;;;;;7.30;99.90;;;;;;5032539;28;19920;-86
2022/04/23 03:21:43;;;;;;;;;;;7.30;99.90;;;;;;5033369;28;20000;-85
2022/04/23 03:24:09;;;;;;;;;;;7.30;99.90;;;;;;5016350;28;19948;-86
2022/04/23 03:26:34;;;;;;;;;;;7.30;99.90;;;;;;5033177;28;20304;-86
2022/04/23 03:29:00;;;;;;;;;;;7.30;99.90;;;;;;5015637;28;20007;-85
2022/04/23 03:31:25;;;;;;;;;;;7.30;99.90;;;;;;5032563;28;19921;-85
2022/04/23 03:33:51;;;;;;;;;;;7.30;99.90;;;;;;5032603;28;19913;-86
2022/04/23 03:36:17;;;;;;;;;;;7.20;99.90;;;;;;5048305;28;19924;-85
2022/04/23 03:38:43;;;;;;;;;;;7.10;99.90;;;;;;5017566;28;19917;-86
2022/04/23 03:41:09;;;;;;;;;;;7.10;99.90;;;;;;5046626;28;19917;-86
2022/04/23 03:43:34;;;;;;;;;;;7.00;99.90;;;;;;5041027;28;19917;-85
2022/04/23 03:46:00;;;;;;;;;;;7.00;99.90;;;;;;5053212;28;19957;-86
2022/04/23 03:48:25;;;;;;;;;;;7.00;99.90;;;;;;5015513;28;20400;-86
2022/04/23 03:50:51;;;;;;;;;;;6.90;99.90;;;;;;5015888;28;20011;-85
2022/04/23 03:53:16;;;;;;;;;;;6.90;99.90;;;;;;5039568;28;19970;-85
2022/04/23 03:55:41;;;;;;;;;;;6.90;99.90;;;;;;5031594;28;20389;-86
2022/04/23 03:58:08;;;;;;;;;;;6.80;99.90;;;;;;5031210;28;19917;-86
2022/04/23 04:00:34;;;;;;;;;;;6.80;99.90;;;;;;5031186;28;20362;-85
2022/04/23 04:02:59;;;;;;;;;;;6.70;99.90;;;;;;5052773;28;19920;-87
2022/04/23 04:05:25;;;;;;;;;;;6.70;99.90;;;;;;5036899;28;19924;-86
2022/04/23 04:07:51;;;;;;;;;;;6.70;99.90;;;;;;5031254;28;20008;-85
2022/04/23 04:10:22;;;;;;;;;;;6.60;99.90;;;;;;5047672;28;19964;-86
2022/04/23 04:12:48;;;;;;;;;;;6.60;99.90;;;;;;5048819;28;19917;-86
2022/04/23 04:15:17;;;;;;;;;;;6.60;99.90;;;;;;5030863;28;20337;-86
2022/04/23 04:17:45;;;;;;;;;;;6.60;99.90;;;;;;5032844;28;20401;-86
2022/04/23 04:20:11;;;;;;;;;;;6.50;99.90;;;;;;5031289;28;19931;-85
2022/04/23 04:22:38;;;;;;;;;;;6.50;99.90;;;;;;5033027;28;19924;-86
2022/04/23 04:25:03;;;;;;;;;;;6.50;99.90;;;;;;5031253;28;19917;-87
2022/04/23 04:27:29;;;;;;;;;;;6.50;99.90;;;;;;5057009;28;19918;-86
2022/04/23 04:29:54;;;;;;;;;;;6.40;99.90;;;;;;5033735;28;19917;-86
2022/04/23 04:32:20;;;;;;;;;;;6.40;99.90;;;;;;5017124;28;19917;-86
2022/04/23 04:34:46;;;;;;;;;;;6.40;99.90;;;;;;5035034;28;19929;-86
2022/04/23 04:37:12;;;;;;;;;;;6.40;99.90;;;;;;5035329;28;19923;-86
2022/04/23 04:39:38;;;;;;;;;;;6.40;99.90;;;;;;5050004;28;19995;-87
2022/04/23 04:42:04;;;;;;;;;;;6.40;99.90;;;;;;5039321;28;19939;-86
2022/04/23 04:44:29;;;;;;;;;;;6.40;99.90;;;;;;5048666;28;19917;-87
2022/04/23 04:46:55;;;;;;;;;;;6.40;99.90;;;;;;5034465;28;20301;-87
2022/04/23 04:49:22;;;;;;;;;;;6.50;99.90;;;;;;5034175;28;20019;-87
2022/04/23 04:51:48;;;;;;;;;;;6.50;99.90;;;;;;5017662;28;19921;-87
2022/04/23 04:54:13;;;;;;;;;;;6.60;99.90;;;;;;5040254;28;19923;-86
2022/04/23 04:56:39;;;;;;;;;;;6.70;99.90;;;;;;5036596;28;20293;-86
2022/04/23 04:59:05;;;;;;;;;;;6.80;99.90;;;;;;5043954;28;19913;-87
2022/04/23 05:01:30;;;;;;;;;;;6.80;99.90;;;;;;5048412;28;19928;-86
2022/04/23 05:03:56;;;;;;;;;;;6.90;99.90;;;;;;5052018;28;19921;-87
2022/04/23 05:06:21;;;;;;;;;;;7.00;99.90;;;;;;5043400;28;19921;-87
2022/04/23 05:08:47;;;;;;;;;;;7.00;99.90;;;;;;5054001;28;19916;-87
2022/04/23 05:11:12;;;;;;;;;;;7.10;99.90;;;;;;5071086;28;19964;-86
2022/04/23 05:13:38;;;;;;;;;;;7.10;99.90;;;;;;5051553;28;19909;-86
2022/04/23 05:16:07;;;;;;;;;;;7.10;99.90;;;;;;5080608;22;19928;-82
2022/04/23 05:18:33;;;;;;;;;;;7.20;99.90;;;;;;5051592;28;20472;-82
2022/04/23 05:20:59;;;;;;;;;;;7.20;99.90;;;;;;5068987;28;20181;-83
2022/04/23 05:23:25;;;;;;;;;;;7.30;99.90;;;;;;5069011;28;19912;-82
2022/04/23 05:25:50;;;;;;;;;;;7.30;99.90;;;;;;5053527;28;19920;-82
2022/04/23 05:28:16;;;;;;;;;;;7.40;99.90;;;;;;5052824;28;19978;-82
2022/04/23 05:30:42;;;;;;;;;;;7.40;99.90;;;;;;5052823;28;19955;-81
2022/04/23 05:33:08;;;;;;;;;;;7.50;99.90;;;;;;5069789;28;20378;-81
2022/04/23 05:35:34;;;;;;;;;;;7.60;99.90;;;;;;5050115;28;19932;-82
2022/04/23 05:37:59;;;;;;;;;;;7.70;99.90;;;;;;5063162;28;20425;-82
2022/04/23 05:40:25;;;;;;;;;;;7.80;99.90;;;;;;5037786;28;19993;-81
2022/04/23 05:42:50;;;;;;;;;;;7.90;99.90;;;;;;5069466;28;19955;-84
2022/04/23 05:45:16;;;;;;;;;;;8.00;99.90;;;;;;5068581;28;19963;-82
2022/04/23 05:47:42;;;;;;;;;;;8.10;99.90;;;;;;5048835;28;19921;-84
2022/04/23 05:50:08;;;;;;;;;;;8.20;99.90;;;;;;5064912;28;20358;-82
2022/04/23 05:52:37;;;;;;;;;;;8.40;99.90;;;;;;5068250;28;19921;-82
2022/04/23 05:55:04;;;;;;;;;;;8.50;99.90;;;;;;5076943;28;19921;-81
2022/04/23 05:57:33;;;;;;;;;;;8.60;99.90;;;;;;5065422;28;19913;-83
2022/04/23 05:59:58;;;;;;;;;;;8.60;99.90;;;;;;5052416;28;19960;-82
2022/04/23 06:02:24;;;;;;;;;;;8.70;99.90;;;;;;5051625;28;20437;-82
2022/04/23 06:04:49;;;;;;;;;;;8.80;99.90;;;;;;5061908;28;20307;-83
2022/04/23 06:07:15;;;;;;;;;;;8.90;99.90;;;;;;5064138;28;20003;-81
2022/04/23 06:09:41;;;;;;;;;;;8.90;99.90;;;;;;5052199;28;19920;-84
2022/04/23 06:12:07;;;;;;;;;;;9.00;99.90;;;;;;5068731;28;19913;-81
2022/04/23 06:14:33;;;;;;;;;;;9.10;99.90;;;;;;5052444;28;19920;-81
2022/04/23 06:16:58;;;;;;;;;;;9.20;99.90;;;;;;5050701;28;19932;-81
2022/04/23 06:19:24;;;;;;;;;;;9.30;99.90;;;;;;5049106;28;19960;-81
2022/04/23 06:21:50;;;;;;;;;;;9.30;99.90;;;;;;5047352;28;20417;-81
2022/04/23 06:24:15;;;;;;;;;;;9.40;99.90;;;;;;5052792;28;20336;-82
2022/04/23 06:26:41;;;;;;;;;;;9.50;99.90;;;;;;5068398;28;19958;-82
2022/04/23 06:29:06;;;;;;;;;;;9.60;99.90;;;;;;5052488;28;19913;-82
2022/04/23 06:31:32;;;;;;;;;;;9.70;99.90;;;;;;5050681;28;19924;-82
2022/04/23 06:33:57;;;;;;;;;;;9.80;99.90;;;;;;5051807;28;20302;-81
2022/04/23 06:36:23;;;;;;;;;;;9.90;99.90;;;;;;5050122;28;19913;-82
2022/04/23 06:38:48;;;;;;;;;;;10.00;99.90;;;;;;5046948;28;20007;-82
2022/04/23 06:41:14;;;;;;;;;;;10.10;99.90;;;;;;5040921;28;19924;-82
2022/04/23 06:43:39;;;;;;;;;;;10.20;99.90;;;;;;5069042;28;19908;-81
2022/04/23 06:46:05;;;;;;;;;;;10.40;99.90;;;;;;5051255;28;19962;-82
2022/04/23 06:48:30;;;;;;;;;;;10.40;99.90;;;;;;5048980;28;20310;-82
2022/04/23 06:50:56;;;;;;;;;;;10.50;99.90;;;;;;5061824;28;19958;-82
2022/04/23 06:53:24;;;;;;;;;;;10.60;99.90;;;;;;5073090;28;20323;-81
2022/04/23 06:55:50;;;;;;;;;;;10.70;99.90;;;;;;5072223;28;19925;-81
2022/04/23 06:58:16;;;;;;;;;;;10.90;99.90;;;;;;5054438;28;20332;-81
2022/04/23 07:00:41;;;;;;;;;;;11.00;99.90;;;;;;5052670;28;19917;-81
2022/04/23 07:03:07;;;;;;;;;;;11.10;99.90;;;;;;5054890;28;19927;-81
2022/04/23 07:05:33;;;;;;;;;;;11.10;99.90;;;;;;5072163;28;19917;-82
2022/04/23 07:08:01;;;;;;;;;;;11.20;99.90;;;;;;5071212;28;19916;-82
2022/04/23 07:10:27;;;;;;;;;;;11.20;99.90;;;;;;5071754;28;20003;-82
2022/04/23 07:12:53;;;;;;;;;;;11.30;99.90;;;;;;5069532;28;19966;-82
2022/04/23 07:15:19;;;;;;;;;;;11.30;99.90;;;;;;5050931;28;19924;-82
2022/04/23 07:17:46;;;;;;;;;;;11.50;99.90;;;;;;5051970;28;19944;-81
2022/04/23 07:20:11;;;;;;;;;;;11.60;99.90;;;;;;5070723;28;19966;-81
2022/04/23 07:22:37;;;;;;;;;;;11.70;99.90;;;;;;5055816;28;19920;-81
2022/04/23 07:25:03;;;;;;;;;;;11.70;99.90;;;;;;5054989;28;19924;-86
2022/04/23 07:27:29;;;;;;;;;;;11.80;99.90;;;;;;5072204;28;20004;-83
2022/04/23 07:29:54;;;;;;;;;;;12.00;99.90;;;;;;5072280;28;19912;-83
2022/04/23 07:32:21;;;;;;;;;;;12.10;99.90;;;;;;5055897;28;19913;-82
2022/04/23 07:37:31;;;;;;;;;;;12.40;99.90;;;;;;5053786;28;19963;-83
2022/04/23 07:39:57;;;;;;;;;;;12.50;99.90;;;;;;5051598;28;19917;-82
2022/04/23 07:42:23;;;;;;;;;;;12.60;96.60;;;;;;5051579;28;19935;-82
2022/04/23 07:44:49;;;;;;;;;;;12.80;96.20;;;;;;5052041;28;19917;-82
2022/04/23 07:47:15;;;;;;;;;;;12.90;94.70;;;;;;5052119;28;19919;-84
2022/04/23 07:49:40;;;;;;;;;;;12.90;94.70;;;;;;5052102;28;19921;-83
2022/04/23 07:52:06;;;;;;;;;;;12.90;95.60;;;;;;5068407;28;20003;-82
2022/04/23 07:54:31;;;;;;;;;;;12.90;95.90;;;;;;5068528;28;19921;-83
2022/04/23 07:56:57;;;;;;;;;;;13.00;94.30;;;;;;5051848;28;20256;-83
2022/04/23 07:59:23;;;;;;;;;;;13.10;96.10;;;;;;5055521;28;19949;-83
2022/04/23 08:01:49;;;;;;;;;;;13.20;95.00;;;;;;5054626;28;20333;-83
2022/04/23 08:04:14;;;;;;;;;;;13.30;95.20;;;;;;5055255;28;20358;-83
2022/04/23 08:06:40;;;;;;;;;;;13.30;94.90;;;;;;5071652;28;19909;-82
2022/04/23 08:09:05;;;;;;;;;;;13.50;93.40;;;;;;5054648;28;19912;-83
2022/04/23 08:11:31;;;;;;;;;;;13.60;92.00;;;;;;5071617;28;19912;-83
2022/04/23 08:13:57;;;;;;;;;;;13.80;92.00;;;;;;5054473;28;19916;-83
2022/04/23 08:16:22;;;;;;;;;;;13.90;90.30;;;;;;5054394;28;19967;-82
2022/04/23 08:18:48;;;;;;;;;;;13.90;90.10;;;;;;5071049;28;19954;-81
2022/04/23 08:21:14;;;;;;;;;;;13.90;88.10;;;;;;5071256;28;20452;-82
2022/04/23 08:23:39;;;;;;;;;;;13.90;90.30;;;;;;5071187;28;19999;-82
2022/04/23 08:26:05;;;;;;;;;;;14.00;91.00;;;;;;5070939;28;20002;-82
2022/04/23 08:31:15;;;;;;;;;;;14.30;89.50;;;;;;5072761;28;20010;-82
2022/04/23 08:34:00;;;;;;;;;;;14.30;90.30;;;;;;5055185;28;19912;-84
2022/04/23 08:36:39;;;;;;;;;;;14.50;90.10;;;;;;5057003;28;19979;-82
2022/04/23 08:39:05;;;;;;;;;;;14.60;88.60;;;;;;5070519;28;19931;-82
2022/04/23 08:41:31;;;;;;;;;;;14.70;81.80;;;;;;5054321;28;19916;-82
2022/04/23 08:44:05;;;;;;;;;;;14.70;84.00;;;;;;5070593;28;19962;-83
2022/04/23 08:46:35;;;;;;;;;;;14.70;81.00;;;;;;5070729;28;19919;-82
2022/04/23 08:49:03;;;;;;;;;;;14.80;81.80;;;;;;5054014;28;19978;-82
2022/04/23 08:51:32;;;;;;;;;;;14.90;84.40;;;;;;5070839;28;19909;-83
2022/04/23 08:53:59;;;;;;;;;;;15.10;85.80;;;;;;5070818;28;19958;-82
2022/04/23 08:56:24;;;;;;;;;;;15.20;79.40;;;;;;5070588;28;19923;-83
2022/04/23 08:58:50;;;;;;;;;;;15.30;77.50;;;;;;5053384;28;20011;-82
2022/04/23 09:01:16;;;;;;;;;;;15.30;77.10;;;;;;5053715;28;20430;-83
2022/04/23 09:03:42;;;;;;;;;;;15.30;77.50;;;;;;5053612;28;19963;-82
2022/04/23 09:06:07;;;;;;;;;;;15.30;78.80;;;;;;5053598;28;19959;-82
2022/04/23 09:08:33;;;;;;;;;;;15.30;77.60;;;;;;5053261;28;19916;-83
2022/04/23 09:10:58;;;;;;;;;;;15.30;81.00;;;;;;5052581;28;19916;-82
2022/04/23 09:13:28;;;;;;;;;;;15.40;86.40;;;;;;5050061;28;19921;-83
2022/04/23 09:24:15;;;;;;;;;;;15.50;75.30;;;;;;5051783;28;19915;-83
2022/04/23 09:26:41;;;;;;;;;;;15.30;75.30;;;;;;5049970;28;20283;-82
2022/04/23 09:29:14;;;;;;;;;;;15.50;75.10;;;;;;5052937;28;20484;-82
2022/04/23 09:31:40;;;;;;;;;;;15.50;73.40;;;;;;5053582;28;19913;-83
2022/04/23 09:34:14;;;;;;;;;;;15.30;72.70;;;;;;5069763;28;19943;-83
2022/04/23 09:36:45;;;;;;;;;;;15.20;76.40;;;;;;5070221;28;19998;-83
2022/04/23 09:39:11;;;;;;;;;;;15.20;72.00;;;;;;5069816;28;19916;-82
2022/04/23 09:41:36;;;;;;;;;;;15.30;75.60;;;;;;5053131;28;20278;-83
2022/04/23 09:44:07;;;;;;;;;;;15.40;71.90;;;;;;5053065;28;19912;-82
2022/04/23 09:46:46;;;;;;;;;;;15.50;71.20;;;;;;5069629;28;19913;-82
2022/04/23 09:49:12;;;;;;;;;;;15.60;71.80;;;;;;5069425;28;20003;-82
2022/04/23 09:51:38;;;;;;;;;;;15.60;72.30;;;;;;5069475;28;19962;-83
2022/04/23 09:54:03;;;;;;;;;;;15.60;69.00;;;;;;5069727;28;19912;-83
2022/04/23 09:56:29;;;;;;;;;;;15.50;70.30;;;;;;5052937;28;20316;-82
2022/04/23 09:58:55;;;;;;;;;;;15.50;73.50;;;;;;5069323;28;20395;-81
2022/04/23 10:01:21;;;;;;;;;;;15.50;73.00;;;;;;5069459;28;20280;-81
2022/04/23 10:03:51;;;;;;;;;;;15.50;75.80;;;;;;5069321;28;19913;-82
2022/04/23 10:06:21;;;;;;;;;;;15.60;78.60;;;;;;5052581;28;19912;-82
2022/04/23 10:08:57;;;;;;;;;;;15.80;75.20;;;;;;5052631;28;19919;-83
2022/04/23 10:11:22;;;;;;;;;;;15.90;70.60;;;;;;5053059;28;20306;-83
2022/04/23 10:13:50;;;;;;;;;;;15.80;73.60;;;;;;5069429;28;19909;-82
2022/04/23 10:16:16;;;;;;;;;;;16.10;71.00;;;;;;5052673;28;20283;-82
2022/04/23 10:18:43;;;;;;;;;;;16.10;74.20;;;;;;5069188;28;20039;-83
2022/04/23 10:21:09;;;;;;;;;;;16.20;71.20;;;;;;5052865;28;20407;-83
2022/04/23 10:23:48;;;;;;;;;;;16.40;71.70;;;;;;5052768;28;19916;-82
2022/04/23 10:26:15;;;;;;;;;;;16.50;69.90;;;;;;5073370;28;19963;-82
2022/04/23 10:28:44;;;;;;;;;;;16.60;68.00;;;;;;5073214;28;19947;-83
2022/04/23 10:31:16;;;;;;;;;;;16.70;67.40;;;;;;5073293;28;20382;-82
2022/04/23 10:33:54;;;;;;;;;;;16.60;67.20;;;;;;5073833;28;19918;-82
2022/04/23 10:36:20;;;;;;;;;;;16.50;68.30;;;;;;5057951;28;19917;-83
2022/04/23 10:38:51;;;;;;;;;;;16.50;69.80;;;;;;5073067;28;19930;-82
2022/04/23 10:41:21;;;;;;;;;;;16.40;64.60;;;;;;5073274;28;19912;-82
2022/04/23 10:43:46;;;;;;;;;;;16.30;63.20;;;;;;5073073;28;19909;-82
2022/04/23 10:46:31;;;;;;;;;;;16.30;70.10;;;;;;5072964;28;19912;-84
2022/04/23 10:49:13;;;;;;;;;;;16.20;68.60;;;;;;5074904;28;19920;-80
2022/04/23 10:51:46;;;;;;;;;;;16.20;71.80;;;;;;5076632;28;19955;-80
2022/04/23 10:54:12;;;;;;;;;;;16.20;71.20;;;;;;5059580;28;20393;-81
2022/04/23 10:56:37;;;;;;;;;;;16.50;66.70;;;;;;5076062;28;19908;-80
2022/04/23 10:59:03;;;;;;;;;;;16.60;70.00;;;;;;5056687;28;20356;-80
2022/04/23 11:01:30;;;;;;;;;;;16.90;69.30;;;;;;5056853;28;20333;-80
2022/04/23 11:03:58;;;;;;;;;;;16.60;65.80;;;;;;5072452;28;20321;-80
2022/04/23 11:12:17;;;;;;;;;;;16.30;70.50;;;;;;5057743;28;19983;-84
2022/04/23 11:14:47;;;;;;;;;;;16.40;67.10;;;;;;5055955;28;19916;-81
2022/04/23 11:17:21;;;;;;;;;;;16.30;66.40;;;;;;5091991;22;19928;-84
2022/04/23 11:19:53;;;;;;;;;;;16.10;69.80;;;;;;5092861;28;19919;-84
2022/04/23 11:22:22;;;;;;;;;;;16.30;69.20;;;;;;5090638;28;20328;-83
2022/04/23 11:24:48;;;;;;;;;;;16.00;67.70;;;;;;5090576;28;20326;-84
2022/04/23 11:27:27;;;;;;;;;;;16.00;69.40;;;;;;5077615;28;19990;-84
2022/04/23 11:29:52;;;;;;;;;;;16.10;70.00;;;;;;5080020;28;19998;-84
2022/04/23 11:32:28;;;;;;;;;;;16.20;70.20;;;;;;5076974;28;20350;-84
2022/04/23 11:34:54;;;;;;;;;;;16.40;70.00;;;;;;5078549;28;19917;-84
2022/04/23 11:37:27;;;;;;;;;;;16.60;69.10;;;;;;5077186;28;19908;-84
2022/04/23 11:40:02;;;;;;;;;;;16.80;64.80;;;;;;5077811;28;19928;-84
2022/04/23 11:42:37;;;;;;;;;;;16.70;64.60;;;;;;5078859;28;20357;-85
2022/04/23 11:45:03;;;;;;;;;;;16.70;63.40;;;;;;5081107;28;19958;-86
2022/04/23 11:47:29;;;;;;;;;;;16.60;65.00;;;;;;5059674;28;19924;-85
2022/04/23 11:50:21;;;;;;;;;;;16.60;64.00;;;;;;5045745;28;20275;-85
2022/04/23 11:52:57;;;;;;;;;;;16.60;64.00;;;;;;5060181;28;19909;-85
2022/04/23 11:55:24;;;;;;;;;;;16.80;62.30;;;;;;5079334;28;19912;-85
2022/04/23 11:57:54;;;;;;;;;;;16.90;60.60;;;;;;5081897;28;19913;-85
2022/04/23 12:00:20;;;;;;;;;;;17.10;62.20;;;;;;5081583;28;19947;-84
2022/04/23 12:02:45;;;;;;;;;;;17.20;60.50;;;;;;5078195;28;19920;-86
2022/04/23 12:05:31;;;;;;;;;;;17.10;58.80;;;;;;5060854;28;19920;-85
2022/04/23 12:07:57;;;;;;;;;;;17.10;58.50;;;;;;5072445;28;19913;-83
2022/04/23 12:10:24;;;;;;;;;;;17.20;59.30;;;;;;5068750;28;19939;-85
2022/04/23 12:13:06;;;;;;;;;;;17.30;62.50;;;;;;5065621;28;19942;-86
2022/04/23 12:15:32;;;;;;;;;;;17.20;59.10;;;;;;5069220;28;19920;-85
2022/04/23 12:17:58;;;;;;;;;;;16.70;59.40;;;;;;5086737;28;19920;-85
2022/04/23 12:20:25;;;;;;;;;;;16.40;62.00;;;;;;5087075;28;19909;-85
2022/04/23 12:22:58;;;;;;;;;;;16.40;64.90;;;;;;5085921;28;19938;-85
2022/04/23 12:25:25;;;;;;;;;;;16.40;62.50;;;;;;5075718;28;20003;-85
2022/04/23 12:28:00;;;;;;;;;;;16.60;61.30;;;;;;5077401;28;19916;-85
2022/04/23 12:41:35;;;;;;;;;;;16.60;63.00;;;;;;5084205;28;19947;-85
2022/04/23 12:44:20;;;;;;;;;;;16.80;64.90;;;;;;5084364;28;20282;-85
2022/04/23 12:47:16;;;;;;;;;;;16.90;64.70;;;;;;5053329;28;19980;-85
2022/04/23 12:49:56;;;;;;;;;;;17.00;60.60;;;;;;5063241;28;19999;-86
2022/04/23 12:52:40;;;;;;;;;;;16.90;61.60;;;;;;5074038;28;19913;-85
2022/04/23 12:55:18;;;;;;;;;;;16.70;59.40;;;;;;5082057;28;19920;-85
2022/04/23 12:57:48;;;;;;;;;;;16.60;60.60;;;;;;5075212;28;19960;-85
2022/04/23 13:00:16;;;;;;;;;;;16.50;59.60;;;;;;5052445;28;20006;-84
2022/04/23 13:02:43;;;;;;;;;;;16.50;61.40;;;;;;5056359;28;20298;-84
2022/04/23 13:05:10;;;;;;;;;;;16.40;62.10;;;;;;5074043;28;19909;-85
2022/04/23 13:10:19;;;;;;;;;;;16.80;61.60;;;;;;5074842;28;19962;-84
2022/04/23 13:12:45;;;;;;;;;;;16.80;62.00;;;;;;5053174;28;20353;-84
2022/04/23 13:15:11;;;;;;;;;;;16.80;59.20;;;;;;5054553;28;19920;-84
2022/04/23 13:17:38;;;;;;;;;;;16.50;61.90;;;;;;5070064;28;20290;-84
2022/04/23 13:20:11;;;;;;;;;;;16.20;63.10;;;;;;5068441;28;19915;-84
2022/04/23 13:22:36;;;;;;;;;;;16.10;63.60;;;;;;5069332;28;19916;-84
2022/04/23 13:25:03;;;;;;;;;;;16.20;62.70;;;;;;5052787;28;20279;-84
2022/04/23 13:27:29;;;;;;;;;;;16.20;63.00;;;;;;5072713;28;19915;-84
2022/04/23 13:29:55;;;;;;;;;;;16.10;61.20;;;;;;5055732;28;19912;-84
2022/04/23 13:32:20;;;;;;;;;;;16.10;60.70;;;;;;5056486;28;20286;-84
2022/04/23 13:34:46;;;;;;;;;;;16.00;61.10;;;;;;5055853;28;19942;-84
2022/04/23 13:37:12;;;;;;;;;;;16.00;61.80;;;;;;5057426;28;20288;-84
2022/04/23 13:39:37;;;;;;;;;;;16.00;63.00;;;;;;5073620;28;19909;-84
2022/04/23 13:42:03;;;;;;;;;;;16.00;62.90;;;;;;5057390;28;19998;-84
2022/04/23 13:44:29;;;;;;;;;;;16.00;64.60;;;;;;5073579;28;19915;-84
2022/04/23 13:46:55;;;;;;;;;;;16.20;65.00;;;;;;5072236;28;19912;-84
2022/04/23 13:49:22;;;;;;;;;;;16.30;64.40;;;;;;5072858;28;19912;-84
2022/04/23 13:51:47;;;;;;;;;;;16.30;62.60;;;;;;5072533;28;19912;-84
2022/04/23 13:54:13;;;;;;;;;;;16.40;63.00;;;;;;5072488;28;19916;-84
2022/04/23 13:56:38;;;;;;;;;;;16.50;61.30;;;;;;5072171;28;19912;-84
2022/04/23 13:59:04;;;;;;;;;;;16.60;60.20;;;;;;5071944;28;19963;-84
2022/04/23 14:01:29;;;;;;;;;;;16.70;60.40;;;;;;5073954;28;20003;-84
2022/04/23 14:12:08;;;;;;;;;;;16.90;59.40;;;;;;5071999;28;20328;-89
2022/04/23 14:14:33;;;;;;;;;;;17.00;58.80;;;;;;5054654;28;19921;-82
2022/04/23 14:16:59;;;;;;;;;;;17.00;57.60;;;;;;5037250;28;20421;-82
2022/04/23 14:19:24;;;;;;;;;;;17.10;56.80;;;;;;5037742;28;20383;-82
2022/04/23 14:21:50;;;;;;;;;;;17.10;57.20;;;;;;5038790;28;19916;-84
2022/04/23 14:24:15;;;;;;;;;;;17.10;57.10;;;;;;5050517;28;19916;-91
2022/04/23 14:26:41;;;;;;;;;;;17.00;56.90;;;;;;5051598;28;20003;-92
2022/04/23 14:29:07;;;;;;;;;;;17.00;58.90;;;;;;5068060;28;19909;-92
2022/04/23 14:31:33;;;;;;;;;;;16.90;58.60;;;;;;5050488;28;19917;-90
2022/04/23 14:33:58;;;;;;;;;;;16.80;61.50;;;;;;5055248;28;20379;-84
2022/04/23 14:36:24;;;;;;;;;;;16.70;58.50;;;;;;5061007;28;19920;-83
2022/04/23 14:38:50;;;;;;;;;;;16.60;58.00;;;;;;5058175;28;19921;-83
2022/04/23 14:41:16;;;;;;;;;;;16.50;59.60;;;;;;5056229;28;19916;-83
2022/04/23 14:43:41;;;;;;;;;;;16.50;60.30;;;;;;5082526;28;20014;-84
2022/04/23 14:46:07;;;;;;;;;;;16.50;59.90;;;;;;5064183;28;19950;-83
2022/04/23 14:48:32;;;;;;;;;;;16.40;59.20;;;;;;5063104;28;19956;-83
2022/04/23 14:53:45;;;;;;;;;;;16.50;59.50;;;;;;5076831;28;19932;-86
2022/04/23 14:56:11;;;;;;;;;;;16.40;60.60;;;;;;5062231;28;20011;-83
2022/04/23 14:58:36;;;;;;;;;;;16.50;59.20;;;;;;5062214;28;20446;-84
2022/04/23 15:01:02;;;;;;;;;;;16.50;58.40;;;;;;5061601;28;19988;-84
2022/04/23 15:03:27;;;;;;;;;;;16.60;59.20;;;;;;5077577;28;19935;-83
2022/04/23 15:05:53;;;;;;;;;;;16.60;57.80;;;;;;5061231;28;19917;-83
2022/04/23 15:08:18;;;;;;;;;;;16.50;59.20;;;;;;5061282;28;19965;-83